ANA97 RJTT-RJBB
Flight info
| Callsign | ANA97 |
|---|---|
| Flight time | N/A |
| Altitude | 32000 |
| Route | LAXAS4 LAXAS Y56 TOHME Y54 KOHWA Y544 DUBKA DUBKAA |
| Aircraft | A359/H-SDE2E3GHIJ3J4J5LM1ORWXY/LB1D1 |
Departure
| Time | N/A |
|---|---|
| Airport | Tokyo Haneda International Airport (RJTT) |
Arrival
| Time | 2026-05-06 15:41 |
|---|---|
| Airport | Kansai International Airport (RJBB) |
| Time | Latitude | Longitude | Altitude | Speed | Heading |
|---|---|---|---|---|---|
| 2026-05-06 15:11 | 34.88252 | 137.56969 | 32203 ft | 381 kts | 249° |
| 2026-05-06 15:11 | 34.87541 | 137.54626 | 32187 ft | 377 kts | 248° |
| 2026-05-06 15:11 | 34.86633 | 137.51653 | 31689 ft | 373 kts | 248° |
| 2026-05-06 15:12 | 34.85732 | 137.48704 | 30730 ft | 381 kts | 248° |
| 2026-05-06 15:12 | 34.84811 | 137.45634 | 29610 ft | 390 kts | 249° |
| 2026-05-06 15:12 | 34.83901 | 137.42507 | 28718 ft | 393 kts | 249° |
| 2026-05-06 15:12 | 34.83001 | 137.39362 | 28023 ft | 392 kts | 249° |
| 2026-05-06 15:13 | 34.82112 | 137.36233 | 27374 ft | 390 kts | 249° |
| 2026-05-06 15:13 | 34.81228 | 137.33125 | 26748 ft | 388 kts | 249° |
| 2026-05-06 15:13 | 34.80346 | 137.30030 | 26636 ft | 387 kts | 249° |
| 2026-05-06 15:13 | 34.79461 | 137.26937 | 26641 ft | 387 kts | 249° |
| 2026-05-06 15:14 | 34.78572 | 137.23843 | 26641 ft | 387 kts | 249° |
| 2026-05-06 15:14 | 34.77683 | 137.20749 | 26642 ft | 387 kts | 249° |
| 2026-05-06 15:14 | 34.76792 | 137.17658 | 26642 ft | 387 kts | 249° |
| 2026-05-06 15:14 | 34.75901 | 137.14572 | 26641 ft | 387 kts | 249° |
| 2026-05-06 15:15 | 34.75008 | 137.11482 | 26650 ft | 386 kts | 249° |
| 2026-05-06 15:15 | 34.74123 | 137.08418 | 26642 ft | 383 kts | 249° |
| 2026-05-06 15:15 | 34.73239 | 137.05364 | 26642 ft | 382 kts | 249° |
| 2026-05-06 15:15 | 34.72355 | 137.02313 | 26642 ft | 382 kts | 249° |
| 2026-05-06 15:16 | 34.71471 | 136.99267 | 26642 ft | 382 kts | 249° |
| 2026-05-06 15:16 | 34.70529 | 136.96253 | 26638 ft | 381 kts | 244° |
| 2026-05-06 15:16 | 34.69413 | 136.93371 | 26641 ft | 382 kts | 243° |
| 2026-05-06 15:16 | 34.68236 | 136.90481 | 26641 ft | 382 kts | 242° |
| 2026-05-06 15:17 | 34.67029 | 136.87603 | 26641 ft | 382 kts | 242° |
| 2026-05-06 15:17 | 34.65806 | 136.84730 | 26641 ft | 382 kts | 242° |
| 2026-05-06 15:17 | 34.64580 | 136.81863 | 26642 ft | 382 kts | 242° |
| 2026-05-06 15:17 | 34.63367 | 136.79031 | 26343 ft | 375 kts | 242° |
| 2026-05-06 15:18 | 34.62166 | 136.76219 | 25626 ft | 375 kts | 242° |
| 2026-05-06 15:18 | 34.60957 | 136.73388 | 24861 ft | 378 kts | 242° |
| 2026-05-06 15:18 | 34.59763 | 136.70588 | 24232 ft | 377 kts | 241° |
| 2026-05-06 15:18 | 34.58555 | 136.67756 | 23630 ft | 376 kts | 241° |
| 2026-05-06 15:19 | 34.57357 | 136.64947 | 22903 ft | 374 kts | 242° |
| 2026-05-06 15:19 | 34.56160 | 136.62142 | 22171 ft | 374 kts | 242° |
| 2026-05-06 15:19 | 34.54968 | 136.59351 | 21468 ft | 373 kts | 242° |
| 2026-05-06 15:19 | 34.53774 | 136.56561 | 20780 ft | 372 kts | 242° |
| 2026-05-06 15:20 | 34.52582 | 136.53774 | 20102 ft | 372 kts | 242° |
| 2026-05-06 15:20 | 34.51391 | 136.50993 | 19427 ft | 371 kts | 243° |
| 2026-05-06 15:20 | 34.50197 | 136.48209 | 18782 ft | 371 kts | 243° |
| 2026-05-06 15:20 | 34.49006 | 136.45435 | 18075 ft | 371 kts | 243° |
| 2026-05-06 15:21 | 34.47817 | 136.42663 | 17385 ft | 369 kts | 243° |
| 2026-05-06 15:21 | 34.46635 | 136.39911 | 16743 ft | 367 kts | 243° |
| 2026-05-06 15:21 | 34.45457 | 136.37170 | 16097 ft | 366 kts | 243° |
| 2026-05-06 15:21 | 34.44295 | 136.34471 | 15454 ft | 365 kts | 243° |
| 2026-05-06 15:22 | 34.43122 | 136.31747 | 14833 ft | 364 kts | 243° |
| 2026-05-06 15:22 | 34.41953 | 136.29033 | 14388 ft | 361 kts | 243° |
| 2026-05-06 15:22 | 34.40781 | 136.26316 | 14377 ft | 364 kts | 243° |
| 2026-05-06 15:22 | 34.39606 | 136.23594 | 14381 ft | 365 kts | 243° |
| 2026-05-06 15:23 | 34.38430 | 136.20871 | 14381 ft | 365 kts | 243° |
| 2026-05-06 15:23 | 34.37255 | 136.18152 | 14382 ft | 364 kts | 243° |
| 2026-05-06 15:23 | 34.36083 | 136.15434 | 14381 ft | 363 kts | 244° |
| 2026-05-06 15:23 | 34.35145 | 136.12631 | 14021 ft | 357 kts | 252° |
| 2026-05-06 15:24 | 34.34462 | 136.09778 | 13233 ft | 358 kts | 255° |
| 2026-05-06 15:24 | 34.33877 | 136.06843 | 12456 ft | 359 kts | 257° |
| 2026-05-06 15:24 | 34.33346 | 136.03884 | 11761 ft | 360 kts | 257° |
| 2026-05-06 15:24 | 34.32839 | 136.00927 | 11157 ft | 358 kts | 257° |
| 2026-05-06 15:25 | 34.32346 | 135.98044 | 11099 ft | 340 kts | 257° |
| 2026-05-06 15:25 | 34.31877 | 135.95326 | 11112 ft | 321 kts | 257° |
| 2026-05-06 15:25 | 34.31426 | 135.92755 | 11095 ft | 303 kts | 257° |
| 2026-05-06 15:25 | 34.30994 | 135.90331 | 11100 ft | 288 kts | 257° |
| 2026-05-06 15:26 | 34.30573 | 135.87991 | 10851 ft | 283 kts | 257° |
| 2026-05-06 15:26 | 34.30149 | 135.85669 | 10414 ft | 283 kts | 256° |
| 2026-05-06 15:26 | 34.29720 | 135.83336 | 9955 ft | 284 kts | 256° |
| 2026-05-06 15:26 | 34.29294 | 135.81009 | 9515 ft | 283 kts | 256° |
| 2026-05-06 15:27 | 34.28870 | 135.78688 | 9121 ft | 281 kts | 257° |
| 2026-05-06 15:27 | 34.28451 | 135.76385 | 8743 ft | 279 kts | 256° |
| 2026-05-06 15:27 | 34.28036 | 135.74110 | 8364 ft | 275 kts | 256° |
| 2026-05-06 15:27 | 34.27628 | 135.71862 | 7982 ft | 273 kts | 256° |
| 2026-05-06 15:28 | 34.27224 | 135.69647 | 7864 ft | 274 kts | 256° |
| 2026-05-06 15:28 | 34.26813 | 135.67405 | 7866 ft | 273 kts | 256° |
| 2026-05-06 15:28 | 34.26399 | 135.65162 | 7870 ft | 273 kts | 256° |
| 2026-05-06 15:28 | 34.25986 | 135.62923 | 7872 ft | 273 kts | 256° |
| 2026-05-06 15:29 | 34.25571 | 135.60676 | 7866 ft | 274 kts | 256° |
| 2026-05-06 15:29 | 34.25157 | 135.58427 | 7865 ft | 273 kts | 256° |
| 2026-05-06 15:29 | 34.24744 | 135.56182 | 7864 ft | 274 kts | 256° |
| 2026-05-06 15:29 | 34.24331 | 135.53933 | 7862 ft | 275 kts | 256° |
| 2026-05-06 15:30 | 34.23916 | 135.51679 | 7868 ft | 275 kts | 256° |
| 2026-05-06 15:30 | 34.23498 | 135.49420 | 7867 ft | 275 kts | 256° |
| 2026-05-06 15:30 | 34.23078 | 135.47160 | 7866 ft | 275 kts | 256° |
| 2026-05-06 15:30 | 34.22660 | 135.44904 | 7867 ft | 275 kts | 256° |
| 2026-05-06 15:31 | 34.22263 | 135.42678 | 7815 ft | 274 kts | 259° |
| 2026-05-06 15:31 | 34.22201 | 135.40393 | 7441 ft | 274 kts | 274° |
| 2026-05-06 15:31 | 34.22515 | 135.38121 | 7046 ft | 274 kts | 280° |
| 2026-05-06 15:32 | 34.23355 | 135.33650 | 6290 ft | 271 kts | 281° |
| 2026-05-06 15:32 | 34.23786 | 135.31429 | 5869 ft | 271 kts | 281° |
| 2026-05-06 15:32 | 34.24216 | 135.29212 | 5441 ft | 272 kts | 281° |
| 2026-05-06 15:32 | 34.24650 | 135.26982 | 5041 ft | 272 kts | 281° |
| 2026-05-06 15:33 | 34.25080 | 135.24769 | 4758 ft | 266 kts | 281° |
| 2026-05-06 15:33 | 34.25495 | 135.22632 | 4613 ft | 256 kts | 281° |
| 2026-05-06 15:33 | 34.25893 | 135.20584 | 4492 ft | 245 kts | 281° |
| 2026-05-06 15:33 | 34.26273 | 135.18625 | 4381 ft | 234 kts | 280° |
| 2026-05-06 15:34 | 34.26636 | 135.16752 | 4281 ft | 223 kts | 280° |
| 2026-05-06 15:34 | 34.26976 | 135.14994 | 4194 ft | 211 kts | 280° |
| 2026-05-06 15:34 | 34.27299 | 135.13327 | 4125 ft | 197 kts | 280° |
| 2026-05-06 15:34 | 34.27603 | 135.11748 | 3912 ft | 191 kts | 280° |
| 2026-05-06 15:35 | 34.27905 | 135.10168 | 3573 ft | 190 kts | 280° |
| 2026-05-06 15:35 | 34.28216 | 135.08612 | 3273 ft | 191 kts | 283° |
| 2026-05-06 15:35 | 34.28761 | 135.07177 | 2949 ft | 191 kts | 303° |
| 2026-05-06 15:35 | 34.29725 | 135.06109 | 2757 ft | 185 kts | 329° |
| 2026-05-06 15:36 | 34.30899 | 135.05630 | 2649 ft | 174 kts | 352° |
| 2026-05-06 15:36 | 34.32071 | 135.05719 | 2505 ft | 166 kts | 15° |
| 2026-05-06 15:36 | 34.33087 | 135.06297 | 2347 ft | 159 kts | 38° |
| 2026-05-06 15:36 | 34.33856 | 135.07207 | 2155 ft | 152 kts | 51° |
| 2026-05-06 15:37 | 34.34508 | 135.08162 | 2005 ft | 141 kts | 52° |
| 2026-05-06 15:37 | 34.35126 | 135.09083 | 1997 ft | 142 kts | 52° |
| 2026-05-06 15:37 | 34.35753 | 135.10019 | 2000 ft | 144 kts | 52° |
| 2026-05-06 15:37 | 34.36387 | 135.10958 | 1983 ft | 144 kts | 52° |
| 2026-05-06 15:38 | 34.37024 | 135.11903 | 1888 ft | 146 kts | 52° |
| 2026-05-06 15:38 | 34.37662 | 135.12850 | 1709 ft | 144 kts | 52° |
| 2026-05-06 15:38 | 34.38290 | 135.13788 | 1498 ft | 143 kts | 51° |
| 2026-05-06 15:38 | 34.38916 | 135.14722 | 1313 ft | 142 kts | 51° |
| 2026-05-06 15:39 | 34.39531 | 135.15641 | 1116 ft | 142 kts | 51° |
| 2026-05-06 15:39 | 34.40153 | 135.16570 | 935 ft | 142 kts | 51° |
| 2026-05-06 15:39 | 34.40774 | 135.17497 | 736 ft | 141 kts | 50° |
| 2026-05-06 15:39 | 34.41390 | 135.18417 | 550 ft | 141 kts | 50° |
| 2026-05-06 15:40 | 34.42007 | 135.19339 | 361 ft | 141 kts | 50° |
| 2026-05-06 15:40 | 34.42621 | 135.20249 | 142 ft | 137 kts | 50° |
| 2026-05-06 15:40 | 34.43214 | 135.21120 | 30 ft | 124 kts | 50° |
| 2026-05-06 15:40 | 34.43677 | 135.21829 | 30 ft | 94 kts | 51° |
| 2026-05-06 15:41 | 34.43849 | 135.22201 | 31 ft | 16 kts | 102° |
| 2026-05-06 15:41 | 34.43849 | 135.22333 | 31 ft | 16 kts | 85° |
| 2026-05-06 15:41 | 34.43848 | 135.22471 | 30 ft | 17 kts | 115° |
| 2026-05-06 15:41 | 34.43763 | 135.22568 | 29 ft | 16 kts | 139° |
| 2026-05-06 15:42 | 34.43756 | 135.22684 | 29 ft | 14 kts | 103° |
| 2026-05-06 15:42 | 34.43696 | 135.22770 | 29 ft | 14 kts | 138° |
| 2026-05-06 15:42 | 34.43663 | 135.22845 | 29 ft | 9 kts | 75° |
| 2026-05-06 15:42 | 34.43679 | 135.22868 | 28 ft | 0 kts | 46° |
| 2026-05-06 15:43 | 34.43680 | 135.22869 | 28 ft | 1 kts | 46° |
| 2026-05-06 15:43 | 34.43690 | 135.22884 | 29 ft | 1 kts | 50° |
| 2026-05-06 15:43 | 34.43695 | 135.22891 | 29 ft | 0 kts | 50° |